Time;durP1;ratioP1;P1;durP2;ratioP2;P2;SDS_P1;SDS_P2;PMS_P1;PMS_P2;Temp;Humidity;BMP_temperature;BMP_pressure;BME280_temperature;BME280_humidity;BME280_pressure;Samples;Min_cycle;Max_cycle;Signal;HPM_P1;HPM_P2
2023/02/04 00:00:37;;;;;;;0.98;0.43;;;30.10;48.30;;;;;;5094654;28;20231;-46
2023/02/04 00:03:10;;;;;;;2.92;0.50;;;30.20;48.30;;;;;;5094968;28;20225;-46
2023/02/04 00:05:41;;;;;;;2.05;0.60;;;30.20;48.30;;;;;;5094546;28;20225;-49
2023/02/04 00:08:11;;;;;;;0.80;0.40;;;30.20;48.20;;;;;;5081767;28;20702;-49
2023/02/04 00:10:42;;;;;;;0.88;0.40;;;30.30;48.20;;;;;;5073969;28;20195;-49
2023/02/04 00:13:13;;;;;;;0.75;0.30;;;30.20;48.20;;;;;;5073729;28;20199;-49
2023/02/04 00:15:43;;;;;;;0.85;0.40;;;30.30;48.20;;;;;;5074098;28;20705;-47
2023/02/04 00:18:16;;;;;;;2.10;0.35;;;30.30;48.10;;;;;;5074118;28;20211;-49
2023/02/04 00:20:47;;;;;;;1.23;0.50;;;30.30;48.20;;;;;;5074337;28;20202;-46
2023/02/04 00:23:17;;;;;;;2.10;0.20;;;30.40;48.30;;;;;;5074636;28;20374;-46
2023/02/04 00:25:48;;;;;;;0.50;0.30;;;30.40;48.20;;;;;;5076652;28;20225;-47
2023/02/04 00:28:19;;;;;;;1.33;0.63;;;30.40;48.20;;;;;;5073636;28;20215;-46
2023/02/04 00:30:49;;;;;;;0.40;0.40;;;30.40;48.30;;;;;;5073813;28;20195;-45
2023/02/04 00:33:22;;;;;;;2.55;0.50;;;30.50;48.50;;;;;;5082020;28;20760;-48
2023/02/04 00:35:52;;;;;;;1.65;0.50;;;30.50;48.50;;;;;;5093934;28;20202;-47
2023/02/04 00:38:23;;;;;;;1.58;0.50;;;30.50;48.40;;;;;;5079663;28;20210;-49
2023/02/04 00:40:54;;;;;;;1.75;0.50;;;30.50;48.30;;;;;;5074104;28;20230;-47
2023/02/04 00:43:24;;;;;;;1.85;0.50;;;30.60;48.20;;;;;;5074088;28;20232;-48
2023/02/04 00:45:55;;;;;;;1.10;0.30;;;30.60;48.10;;;;;;5074120;28;20229;-45
2023/02/04 00:48:28;;;;;;;1.77;0.47;;;30.60;48.00;;;;;;5073730;28;20217;-45
2023/02/04 00:50:58;;;;;;;1.50;0.50;;;30.60;47.90;;;;;;5073532;28;20191;-48
2023/02/04 00:53:29;;;;;;;4.93;0.50;;;30.60;48.10;;;;;;5073441;28;20199;-48
2023/02/04 00:55:59;;;;;;;4.82;0.68;;;30.70;48.20;;;;;;5073784;28;20202;-50
2023/02/04 00:58:30;;;;;;;5.25;0.57;;;30.70;48.10;;;;;;5085791;28;20219;-45
2023/02/04 01:01:01;;;;;;;1.42;0.55;;;30.70;48.00;;;;;;5093439;28;20666;-47
2023/02/04 01:03:33;;;;;;;1.92;0.55;;;30.80;48.00;;;;;;5093252;28;20563;-46
2023/02/04 01:06:04;;;;;;;1.45;0.50;;;30.80;47.90;;;;;;5093185;28;20229;-46
2023/02/04 01:08:35;;;;;;;2.83;0.57;;;30.80;48.00;;;;;;5077035;28;20233;-47
2023/02/04 01:11:06;;;;;;;1.65;0.60;;;30.80;47.80;;;;;;5072733;28;20575;-45
2023/02/04 01:13:36;;;;;;;1.63;0.52;;;30.80;47.60;;;;;;5072859;28;20199;-47
2023/02/04 01:16:07;;;;;;;1.23;0.40;;;30.90;47.60;;;;;;5073412;28;20201;-48
2023/02/04 01:18:40;;;;;;;1.52;0.50;;;30.90;47.50;;;;;;5072887;28;20238;-48
2023/02/04 01:21:10;;;;;;;0.82;0.40;;;30.90;47.40;;;;;;5073037;28;20191;-48
2023/02/04 01:23:41;;;;;;;1.00;0.40;;;30.90;48.00;;;;;;5072825;28;20540;-47
2023/02/04 01:26:12;;;;;;;0.80;0.52;;;31.00;47.30;;;;;;5072590;28;20214;-45
2023/02/04 01:28:42;;;;;;;1.55;0.52;;;31.00;47.20;;;;;;5072502;28;20215;-45
2023/02/04 01:31:13;;;;;;;1.25;0.32;;;31.00;47.20;;;;;;5072600;28;20187;-47
2023/02/04 01:33:46;;;;;;;2.17;0.70;;;31.10;47.20;;;;;;5072664;28;20194;-48
2023/02/04 01:36:20;;;;;;;1.67;0.60;;;31.10;47.10;;;;;;5072647;28;20202;-47
2023/02/04 01:38:51;;;;;;;1.35;0.50;;;31.10;46.90;;;;;;5072253;28;20712;-44
2023/02/04 01:41:22;;;;;;;0.95;0.50;;;31.10;46.90;;;;;;5072249;28;20194;-45
2023/02/04 01:43:54;;;;;;;1.45;0.50;;;31.10;46.90;;;;;;5071744;28;20201;-45
2023/02/04 01:46:25;;;;;;;2.80;0.60;;;31.20;46.90;;;;;;5079514;28;20196;-45
2023/02/04 01:48:58;;;;;;;2.03;0.50;;;31.20;46.80;;;;;;5092114;28;20476;-45
2023/02/04 01:51:30;;;;;;;1.02;0.50;;;31.20;46.60;;;;;;5092249;28;20677;-45
2023/02/04 01:54:02;;;;;;;4.47;0.80;;;31.20;46.50;;;;;;5092623;28;20201;-45
2023/02/04 01:56:33;;;;;;;4.20;0.75;;;31.20;46.20;;;;;;5092565;28;20197;-48
2023/02/04 01:59:04;;;;;;;4.00;0.70;;;31.30;46.30;;;;;;5092311;28;20685;-46
2023/02/04 02:01:40;;;;;;;1.20;0.63;;;31.30;46.40;;;;;;5092319;28;20213;-46
2023/02/04 02:04:15;;;;;;;2.95;0.68;;;31.30;46.30;;;;;;5092550;28;20201;-46
2023/02/04 02:06:50;;;;;;;2.97;0.70;;;31.40;46.20;;;;;;5092436;28;20197;-45
2023/02/04 02:09:22;;;;;;;2.70;0.70;;;31.40;46.10;;;;;;5071633;28;20213;-46
2023/02/04 02:11:53;;;;;;;0.70;0.50;;;31.40;46.00;;;;;;5071549;28;20194;-49
2023/02/04 02:14:24;;;;;;;3.58;0.75;;;31.40;46.00;;;;;;5070017;28;20209;-48
2023/02/04 02:16:55;;;;;;;1.63;0.55;;;31.40;45.70;;;;;;5071587;28;20202;-47
2023/02/04 02:19:35;;;;;;;1.10;0.70;;;31.40;45.50;;;;;;5074140;28;20210;-48
2023/02/04 02:22:12;;;;;;;1.17;0.65;;;31.40;45.80;;;;;;5072103;28;20197;-48
2023/02/04 02:24:45;;;;;;;2.42;0.82;;;31.40;45.80;;;;;;5071406;28;20245;-47
2023/02/04 02:27:15;;;;;;;1.60;0.75;;;31.40;45.60;;;;;;5071502;28;20198;-53
2023/02/04 02:29:46;;;;;;;1.63;0.70;;;31.40;45.40;;;;;;5071523;28;20225;-49
2023/02/04 02:32:18;;;;;;;2.15;0.55;;;31.40;45.40;;;;;;5072010;28;20592;-50
2023/02/04 02:34:49;;;;;;;1.88;0.70;;;31.40;45.30;;;;;;5091454;28;20198;-53
2023/02/04 02:37:20;;;;;;;2.75;0.60;;;31.40;45.30;;;;;;5086134;28;20205;-48
2023/02/04 02:39:52;;;;;;;2.47;0.73;;;31.50;45.40;;;;;;5071632;28;20222;-48
2023/02/04 02:42:24;;;;;;;2.08;0.60;;;31.50;45.40;;;;;;5071838;28;20369;-46
2023/02/04 02:44:54;;;;;;;3.33;0.90;;;31.50;45.50;;;;;;5070559;28;20725;-47
2023/02/04 02:47:27;;;;;;;1.52;0.70;;;31.50;45.50;;;;;;5070503;28;20198;-49
2023/02/04 02:49:57;;;;;;;2.08;0.80;;;31.60;45.60;;;;;;5071172;28;20755;-49
2023/02/04 02:52:29;;;;;;;1.52;0.70;;;31.60;45.60;;;;;;5071584;28;20204;-46
2023/02/04 02:55:02;;;;;;;0.65;0.45;;;31.60;45.70;;;;;;5070964;28;20198;-48
2023/02/04 02:57:32;;;;;;;1.52;0.55;;;31.70;45.80;;;;;;5070360;28;20569;-50
2023/02/04 03:00:03;;;;;;;1.13;0.60;;;31.70;45.80;;;;;;5071110;28;20214;-46
2023/02/04 03:02:34;;;;;;;2.20;0.75;;;31.70;45.80;;;;;;5071136;28;20202;-48
2023/02/04 03:05:04;;;;;;;1.50;0.77;;;31.70;45.90;;;;;;5071306;28;20229;-46
2023/02/04 03:07:35;;;;;;;2.65;0.80;;;31.80;46.00;;;;;;5071597;28;20205;-47
2023/02/04 03:10:08;;;;;;;2.75;0.90;;;31.80;46.00;;;;;;5071435;28;20195;-46
2023/02/04 03:12:39;;;;;;;1.08;0.73;;;31.80;46.10;;;;;;5071100;28;20201;-49
2023/02/04 03:15:10;;;;;;;2.05;0.60;;;31.80;46.10;;;;;;5071337;28;20201;-46
2023/02/04 03:17:42;;;;;;;1.70;0.63;;;31.90;46.20;;;;;;5071237;28;20194;-47
2023/02/04 03:20:13;;;;;;;1.05;0.65;;;31.90;46.10;;;;;;5071514;28;20201;-50
2023/02/04 03:22:44;;;;;;;2.58;0.75;;;31.90;46.30;;;;;;5071066;28;20190;-47
2023/02/04 03:25:16;;;;;;;5.45;0.88;;;31.90;46.20;;;;;;5071043;28;20233;-48
2023/02/04 03:27:47;;;;;;;2.05;0.85;;;31.90;46.10;;;;;;5071244;28;20206;-49
2023/02/04 03:30:18;;;;;;;1.80;0.65;;;31.90;46.20;;;;;;5071126;28;20680;-52
2023/02/04 03:32:49;;;;;;;2.42;0.80;;;32.00;46.30;;;;;;5084459;28;20190;-48
2023/02/04 03:35:20;;;;;;;1.33;0.68;;;32.00;46.30;;;;;;5090745;28;20211;-50
2023/02/04 03:37:50;;;;;;;1.70;0.70;;;32.10;46.40;;;;;;5081028;28;20665;-52
2023/02/04 03:40:23;;;;;;;2.15;1.02;;;32.10;46.40;;;;;;5070795;28;20201;-51
2023/02/04 03:42:54;;;;;;;1.90;0.80;;;32.10;46.40;;;;;;5070718;28;20194;-50
2023/02/04 03:45:24;;;;;;;1.42;0.65;;;32.20;46.40;;;;;;5070390;28;20768;-49
2023/02/04 03:47:55;;;;;;;1.50;0.60;;;32.20;46.40;;;;;;5072087;28;20202;-50
2023/02/04 03:50:26;;;;;;;3.05;0.65;;;32.20;46.40;;;;;;5090971;28;20559;-50
2023/02/04 03:52:56;;;;;;;1.25;0.60;;;32.30;46.50;;;;;;5091293;28;20194;-50
2023/02/04 03:55:31;;;;;;;1.00;0.60;;;32.30;46.40;;;;;;5090391;28;20221;-52
2023/02/04 03:58:01;;;;;;;1.58;0.70;;;32.30;46.40;;;;;;5090235;28;20213;-53
2023/02/04 04:00:33;;;;;;;2.25;0.63;;;32.40;46.50;;;;;;5090733;28;20194;-49
2023/02/04 04:03:03;;;;;;;0.90;0.63;;;32.40;46.50;;;;;;5091005;28;20348;-48
2023/02/04 04:05:34;;;;;;;1.10;0.55;;;32.40;46.60;;;;;;5090781;28;20637;-49
2023/02/04 04:08:05;;;;;;;1.38;0.57;;;32.50;46.60;;;;;;5079799;28;20226;-49
2023/02/04 04:10:37;;;;;;;1.02;0.60;;;32.50;46.70;;;;;;5073531;28;20221;-51
2023/02/04 04:13:08;;;;;;;0.70;0.60;;;32.50;47.30;;;;;;5074025;28;20202;-49
2023/02/04 04:15:38;;;;;;;2.22;0.63;;;32.60;46.70;;;;;;5074214;28;20222;-47
2023/02/04 04:18:09;;;;;;;2.00;0.80;;;32.60;46.70;;;;;;5073944;28;20229;-48
2023/02/04 04:20:40;;;;;;;1.80;0.60;;;32.60;46.70;;;;;;5073850;28;20243;-50
2023/02/04 04:23:10;;;;;;;1.00;0.50;;;32.70;46.70;;;;;;5074137;28;20194;-49
2023/02/04 04:25:43;;;;;;;2.15;0.60;;;32.70;46.70;;;;;;5073897;28;20228;-49
2023/02/04 04:28:14;;;;;;;1.35;0.80;;;32.70;46.70;;;;;;5087280;28;20217;-47
2023/02/04 04:30:45;;;;;;;1.65;0.65;;;32.80;46.70;;;;;;5094429;28;20668;-47
2023/02/04 04:33:15;;;;;;;2.03;0.80;;;32.80;46.70;;;;;;5093757;28;20198;-49
2023/02/04 04:35:46;;;;;;;0.80;0.60;;;32.90;46.80;;;;;;5094157;28;20189;-48
2023/02/04 04:38:17;;;;;;;1.38;0.80;;;32.90;46.70;;;;;;5080437;28;20226;-49
2023/02/04 04:40:49;;;;;;;1.00;0.52;;;32.90;46.70;;;;;;5073594;28;20194;-48
2023/02/04 04:43:20;;;;;;;1.27;0.70;;;33.00;46.70;;;;;;5073540;28;20191;-48
2023/02/04 04:45:51;;;;;;;1.55;0.50;;;33.00;46.60;;;;;;5073560;28;20226;-46
2023/02/04 04:48:22;;;;;;;1.00;0.60;;;33.00;46.50;;;;;;5073691;28;20215;-53
2023/02/04 04:50:53;;;;;;;2.45;0.80;;;33.10;46.60;;;;;;5073705;28;20198;-48
2023/02/04 04:53:24;;;;;;;0.70;0.50;;;33.10;46.60;;;;;;5073895;28;20657;-48
2023/02/04 04:55:56;;;;;;;1.35;0.70;;;33.10;46.50;;;;;;5072952;28;20729;-51
2023/02/04 04:58:27;;;;;;;0.70;0.70;;;33.20;46.60;;;;;;5072846;28;20222;-50
2023/02/04 05:00:57;;;;;;;0.70;0.55;;;33.20;46.60;;;;;;5072915;28;20672;-48
2023/02/04 05:03:28;;;;;;;1.02;0.60;;;33.20;46.50;;;;;;5073051;28;20190;-48
2023/02/04 05:05:59;;;;;;;1.60;0.63;;;33.20;46.40;;;;;;5073746;28;20225;-50
2023/02/04 05:08:29;;;;;;;1.70;0.68;;;33.30;46.40;;;;;;5073029;28;20218;-48
2023/02/04 05:11:02;;;;;;;0.90;0.70;;;33.30;46.40;;;;;;5073169;28;20194;-51
2023/02/04 05:13:33;;;;;;;0.93;0.70;;;33.30;46.40;;;;;;5072884;28;20209;-48
2023/02/04 05:16:04;;;;;;;1.05;0.68;;;33.40;46.30;;;;;;5072638;28;20194;-47
2023/02/04 05:18:34;;;;;;;1.25;0.60;;;33.40;46.30;;;;;;5072689;28;20217;-51
2023/02/04 05:21:05;;;;;;;1.08;0.60;;;33.40;46.30;;;;;;5072658;28;20202;-47
2023/02/04 05:23:36;;;;;;;1.35;0.77;;;33.40;46.20;;;;;;5077461;28;20560;-48
2023/02/04 05:26:08;;;;;;;0.75;0.50;;;33.50;46.20;;;;;;5092985;28;20217;-49
2023/02/04 05:28:39;;;;;;;2.00;0.63;;;33.50;46.20;;;;;;5093015;28;20692;-48
2023/02/04 05:31:10;;;;;;;1.73;0.80;;;33.60;46.20;;;;;;5093103;28;20217;-50
2023/02/04 05:33:40;;;;;;;1.55;0.63;;;33.50;45.40;;;;;;5093011;28;20190;-51
2023/02/04 05:36:11;;;;;;;1.80;0.60;;;33.50;45.60;;;;;;5092890;28;20198;-51
2023/02/04 05:38:42;;;;;;;1.45;0.73;;;33.50;45.80;;;;;;5075583;28;20225;-55
2023/02/04 05:41:14;;;;;;;1.27;0.60;;;33.50;45.80;;;;;;5072563;28;20202;-51
2023/02/04 05:43:45;;;;;;;2.75;0.80;;;33.50;45.80;;;;;;5071849;28;20194;-51
2023/02/04 05:46:16;;;;;;;0.82;0.55;;;33.50;45.90;;;;;;5072488;28;20720;-52
2023/02/04 05:48:46;;;;;;;2.72;0.60;;;33.50;45.90;;;;;;5072479;28;20214;-50
2023/02/04 05:51:17;;;;;;;0.60;0.50;;;33.50;45.80;;;;;;5076524;28;20190;-52
2023/02/04 05:53:48;;;;;;;1.98;0.50;;;33.50;45.90;;;;;;5092415;28;20198;-55
2023/02/04 05:56:21;;;;;;;1.42;0.57;;;33.50;45.80;;;;;;5091725;28;20279;-55
2023/02/04 05:58:51;;;;;;;0.47;0.47;;;33.50;45.60;;;;;;5091586;28;20240;-51
2023/02/04 06:01:22;;;;;;;0.70;0.40;;;33.40;45.50;;;;;;5092455;28;20220;-51
2023/02/04 06:03:52;;;;;;;1.05;0.50;;;33.40;45.30;;;;;;5092761;28;20201;-52
2023/02/04 06:06:23;;;;;;;0.98;0.50;;;33.40;44.80;;;;;;5092836;28;20225;-49
2023/02/04 06:08:54;;;;;;;1.05;0.57;;;33.40;44.40;;;;;;5073802;28;20222;-52
2023/02/04 06:11:26;;;;;;;1.08;0.60;;;33.30;43.80;;;;;;5072178;28;20198;-50
2023/02/04 06:13:57;;;;;;;1.25;0.70;;;33.30;43.40;;;;;;5071917;28;20624;-50
2023/02/04 06:16:28;;;;;;;1.30;0.50;;;33.20;41.50;;;;;;5071917;28;20201;-51
2023/02/04 06:18:58;;;;;;;0.57;0.50;;;33.20;41.00;;;;;;5075518;28;20673;-50
2023/02/04 06:21:29;;;;;;;1.67;0.40;;;33.10;40.90;;;;;;5071688;28;20649;-54
2023/02/04 06:24:00;;;;;;;0.50;0.43;;;33.00;40.90;;;;;;5071596;28;20198;-47
2023/02/04 06:26:32;;;;;;;0.50;0.50;;;32.90;40.70;;;;;;5071847;28;20276;-51
2023/02/04 06:29:03;;;;;;;1.30;0.60;;;32.80;40.40;;;;;;5071778;28;20226;-52
2023/02/04 06:31:36;;;;;;;1.08;0.40;;;32.80;40.20;;;;;;5071396;28;20202;-54
2023/02/04 06:34:07;;;;;;;1.23;0.52;;;32.70;39.60;;;;;;5074331;28;20350;-55
2023/02/04 06:36:37;;;;;;;0.70;0.38;;;32.70;39.30;;;;;;5071952;28;20213;-52
2023/02/04 06:39:08;;;;;;;0.50;0.47;;;32.60;39.10;;;;;;5071576;28;20210;-55
2023/02/04 06:41:41;;;;;;;0.85;0.50;;;32.50;39.60;;;;;;5071644;28;20190;-48
2023/02/04 06:44:12;;;;;;;0.32;0.32;;;32.50;39.80;;;;;;5071323;28;20198;-49
2023/02/04 06:46:42;;;;;;;0.90;0.57;;;32.40;39.80;;;;;;5071097;28;20697;-52
2023/02/04 06:49:13;;;;;;;0.52;0.30;;;32.40;40.50;;;;;;5071437;28;20575;-49
2023/02/04 06:51:44;;;;;;;0.77;0.40;;;32.40;40.70;;;;;;5071532;28;20195;-50
2023/02/04 06:54:14;;;;;;;1.05;0.55;;;32.30;41.00;;;;;;5071068;28;20197;-52
2023/02/04 06:56:47;;;;;;;0.73;0.50;;;32.30;40.90;;;;;;5070708;28;20205;-49
2023/02/04 06:59:18;;;;;;;0.70;0.43;;;32.40;40.90;;;;;;5070337;28;20261;-49
2023/02/04 07:01:49;;;;;;;0.60;0.60;;;32.40;41.00;;;;;;5070597;28;20669;-50
2023/02/04 07:04:19;;;;;;;0.40;0.40;;;32.40;41.10;;;;;;5070893;28;20634;-51
2023/02/04 07:06:50;;;;;;;0.55;0.40;;;32.40;41.10;;;;;;5070758;28;20222;-52
2023/02/04 07:09:20;;;;;;;0.50;0.43;;;32.40;41.00;;;;;;5070617;28;20218;-50
2023/02/04 07:11:53;;;;;;;1.65;0.50;;;32.40;41.00;;;;;;5071442;28;20202;-51
2023/02/04 07:14:24;;;;;;;0.50;0.50;;;32.40;41.00;;;;;;5071403;28;20198;-51
2023/02/04 07:16:57;;;;;;;1.05;0.55;;;32.40;41.00;;;;;;5071692;28;20197;-52
2023/02/04 07:19:27;;;;;;;1.13;0.70;;;32.40;41.00;;;;;;5071368;28;20218;-50
2023/02/04 07:21:58;;;;;;;1.30;0.68;;;32.50;41.10;;;;;;5070740;28;20691;-49
2023/02/04 07:24:29;;;;;;;0.93;0.57;;;32.50;41.10;;;;;;5071107;28;20198;-50
2023/02/04 07:27:01;;;;;;;1.02;0.60;;;32.50;41.30;;;;;;5070927;28;20570;-51
2023/02/04 07:29:32;;;;;;;0.63;0.40;;;32.50;41.40;;;;;;5070854;28;20225;-49
2023/02/04 07:32:03;;;;;;;0.70;0.50;;;32.50;41.50;;;;;;5070948;28;20570;-49
2023/02/04 07:34:33;;;;;;;0.70;0.50;;;32.50;41.50;;;;;;5070819;28;20217;-51
2023/02/04 07:37:04;;;;;;;0.93;0.50;;;32.50;41.50;;;;;;5070313;28;20198;-47
2023/02/04 07:39:36;;;;;;;0.50;0.50;;;32.50;41.70;;;;;;5070186;28;20218;-52
2023/02/04 07:42:08;;;;;;;1.35;0.57;;;32.50;41.80;;;;;;5070537;28;20681;-49
2023/02/04 07:44:39;;;;;;;0.93;0.50;;;32.50;41.70;;;;;;5072069;28;20206;-49
2023/02/04 07:47:10;;;;;;;0.68;0.57;;;32.50;42.40;;;;;;5074103;28;20218;-48
2023/02/04 07:49:41;;;;;;;2.08;0.55;;;32.50;41.60;;;;;;5073934;28;20299;-50
2023/02/04 07:52:12;;;;;;;0.88;0.63;;;32.50;41.70;;;;;;5074239;28;20666;-49
2023/02/04 07:54:42;;;;;;;1.17;0.50;;;32.50;41.70;;;;;;5074550;28;20555;-52
2023/02/04 07:57:15;;;;;;;0.88;0.55;;;32.50;41.80;;;;;;5084665;28;20197;-51
2023/02/04 07:59:46;;;;;;;0.88;0.50;;;32.50;41.90;;;;;;5094581;28;20589;-49
2023/02/04 08:02:16;;;;;;;0.60;0.40;;;32.50;41.90;;;;;;5094336;28;20198;-51
2023/02/04 08:04:47;;;;;;;1.95;0.70;;;32.50;42.00;;;;;;5094374;28;20193;-48
2023/02/04 08:07:17;;;;;;;1.70;0.70;;;32.50;41.90;;;;;;5089680;28;20226;-52
2023/02/04 08:09:48;;;;;;;0.50;0.50;;;32.50;41.90;;;;;;5073694;28;20392;-52
2023/02/04 08:12:21;;;;;;;1.15;0.57;;;32.50;41.90;;;;;;5075882;28;20207;-51
2023/02/04 08:14:51;;;;;;;2.10;0.60;;;32.50;41.90;;;;;;5093413;28;20677;-51
2023/02/04 08:17:22;;;;;;;0.80;0.50;;;32.50;41.90;;;;;;5093502;28;20555;-51
2023/02/04 08:19:53;;;;;;;0.98;0.63;;;32.40;41.90;;;;;;5093875;28;20365;-50
2023/02/04 08:22:24;;;;;;;0.63;0.52;;;32.40;41.90;;;;;;5094244;28;20198;-48
2023/02/04 08:24:54;;;;;;;1.30;0.65;;;32.40;41.90;;;;;;5094221;28;20200;-52
2023/02/04 08:27:27;;;;;;;1.15;0.70;;;32.40;41.90;;;;;;5093852;28;20226;-49
2023/02/04 08:29:58;;;;;;;1.38;0.70;;;32.40;42.00;;;;;;5094000;28;20213;-48
2023/02/04 08:32:30;;;;;;;1.08;0.50;;;32.40;42.00;;;;;;5093832;28;20197;-52
2023/02/04 08:35:00;;;;;;;0.93;0.52;;;32.40;42.00;;;;;;5094034;28;20233;-50
2023/02/04 08:37:31;;;;;;;0.45;0.40;;;32.30;42.00;;;;;;5086937;28;20206;-52
2023/02/04 08:40:02;;;;;;;1.63;0.60;;;32.30;42.10;;;;;;5076128;28;20202;-49
2023/02/04 08:42:34;;;;;;;1.02;0.50;;;32.30;42.30;;;;;;5073871;28;20210;-48
2023/02/04 08:45:05;;;;;;;0.93;0.55;;;32.30;42.30;;;;;;5073642;28;20562;-47
2023/02/04 08:47:36;;;;;;;1.00;0.75;;;32.30;42.30;;;;;;5073713;28;20233;-49
2023/02/04 08:50:07;;;;;;;1.23;0.60;;;32.30;42.30;;;;;;5073405;28;20194;-49
2023/02/04 08:52:37;;;;;;;2.38;0.70;;;32.30;42.30;;;;;;5073451;28;20195;-48
2023/02/04 08:55:08;;;;;;;1.50;0.70;;;32.20;42.30;;;;;;5073029;28;20194;-48
2023/02/04 08:57:41;;;;;;;0.93;0.60;;;32.20;42.30;;;;;;5073014;28;20572;-48
2023/02/04 09:00:13;;;;;;;1.25;0.60;;;32.20;42.40;;;;;;5072953;28;20194;-47
2023/02/04 09:02:44;;;;;;;0.98;0.50;;;32.20;42.40;;;;;;5073279;28;20203;-49
2023/02/04 09:05:15;;;;;;;0.80;0.60;;;32.10;42.30;;;;;;5073537;28;20194;-48
2023/02/04 09:07:45;;;;;;;1.85;0.60;;;32.10;42.30;;;;;;5073345;28;20697;-48
2023/02/04 09:10:16;;;;;;;0.90;0.50;;;32.10;42.30;;;;;;5072814;28;20570;-51
2023/02/04 09:12:49;;;;;;;1.42;0.63;;;32.00;42.30;;;;;;5072921;28;20198;-47
2023/02/04 09:15:19;;;;;;;0.63;0.55;;;32.00;42.40;;;;;;5072768;28;20197;-47
2023/02/04 09:17:50;;;;;;;0.70;0.50;;;32.00;42.40;;;;;;5072973;28;20205;-49
2023/02/04 09:20:21;;;;;;;1.25;0.50;;;32.00;42.50;;;;;;5072690;28;20202;-49
2023/02/04 09:22:52;;;;;;;1.33;0.68;;;32.00;42.50;;;;;;5072803;28;20195;-49
2023/02/04 09:25:23;;;;;;;0.45;0.40;;;32.00;42.50;;;;;;5075363;28;20197;-47
2023/02/04 09:27:55;;;;;;;1.23;0.60;;;31.90;42.50;;;;;;5092899;28;20225;-51
2023/02/04 09:30:26;;;;;;;1.45;0.80;;;31.90;42.60;;;;;;5092694;28;20189;-48
2023/02/04 09:32:57;;;;;;;0.95;0.60;;;31.90;42.70;;;;;;5093299;28;20202;-47
2023/02/04 09:35:27;;;;;;;1.50;0.60;;;31.90;42.70;;;;;;5092978;28;20194;-50
2023/02/04 09:37:58;;;;;;;0.40;0.40;;;31.80;42.60;;;;;;5081918;28;20206;-48
2023/02/04 09:40:33;;;;;;;1.60;0.57;;;31.90;42.70;;;;;;5072871;28;20684;-48
2023/02/04 09:43:07;;;;;;;1.02;0.63;;;31.90;42.80;;;;;;5073065;28;20200;-49
2023/02/04 09:45:39;;;;;;;1.75;0.65;;;31.80;42.80;;;;;;5072412;28;20542;-48
2023/02/04 09:48:12;;;;;;;0.65;0.50;;;31.80;42.70;;;;;;5072557;28;20233;-51
2023/02/04 09:50:43;;;;;;;1.00;0.52;;;31.80;42.70;;;;;;5072630;28;20201;-48
2023/02/04 09:53:17;;;;;;;0.73;0.57;;;31.80;42.80;;;;;;5072530;28;20190;-50
2023/02/04 09:55:50;;;;;;;1.35;0.70;;;31.80;42.80;;;;;;5072434;28;20201;-47
2023/02/04 09:58:25;;;;;;;0.40;0.40;;;31.70;43.00;;;;;;5083177;28;20217;-47
2023/02/04 10:01:01;;;;;;;1.33;0.70;;;31.70;42.70;;;;;;5091937;28;20224;-49
2023/02/04 10:03:32;;;;;;;1.20;0.50;;;31.60;42.70;;;;;;5091700;28;20198;-48
2023/02/04 10:06:05;;;;;;;0.73;0.65;;;31.60;42.70;;;;;;5091716;28;20335;-49
2023/02/04 10:08:36;;;;;;;0.55;0.52;;;31.60;42.70;;;;;;5075321;28;20724;-48
2023/02/04 10:11:08;;;;;;;0.80;0.70;;;31.50;42.70;;;;;;5071713;28;20195;-47
2023/02/04 10:13:43;;;;;;;1.13;0.60;;;31.50;42.70;;;;;;5071643;28;20198;-53
2023/02/04 10:16:18;;;;;;;1.00;0.50;;;31.50;42.80;;;;;;5072107;28;20202;-49
2023/02/04 10:18:49;;;;;;;0.88;0.40;;;31.50;42.80;;;;;;5072081;28;20689;-47
2023/02/04 10:21:22;;;;;;;0.95;0.52;;;31.40;42.80;;;;;;5071727;28;20545;-47
2023/02/04 10:23:56;;;;;;;1.00;0.55;;;31.40;42.90;;;;;;5071219;28;20225;-50
2023/02/04 10:26:29;;;;;;;1.38;0.52;;;31.40;42.90;;;;;;5071671;28;20641;-47
2023/02/04 10:29:07;;;;;;;0.63;0.50;;;31.40;42.90;;;;;;5071790;28;20223;-50
2023/02/04 10:31:39;;;;;;;1.17;0.60;;;31.30;42.80;;;;;;5071356;28;20213;-50
2023/02/04 10:34:15;;;;;;;0.63;0.55;;;31.30;42.80;;;;;;5071703;28;20195;-49
2023/02/04 10:36:47;;;;;;;0.70;0.50;;;31.30;42.80;;;;;;5071635;28;20194;-47
2023/02/04 10:39:19;;;;;;;1.30;0.75;;;31.30;42.80;;;;;;5071611;28;20215;-49
2023/02/04 10:41:51;;;;;;;0.50;0.50;;;31.30;42.80;;;;;;5071530;28;20202;-46
2023/02/04 10:44:29;;;;;;;0.60;0.60;;;31.20;42.80;;;;;;5081358;28;20566;-47
2023/02/04 10:47:04;;;;;;;0.55;0.47;;;31.20;42.80;;;;;;5091272;28;20191;-52
2023/02/04 10:49:36;;;;;;;1.00;0.60;;;31.20;42.80;;;;;;5091431;28;20216;-48
2023/02/04 10:52:17;;;;;;;0.50;0.50;;;31.20;42.80;;;;;;5091380;28;20194;-49
2023/02/04 10:54:49;;;;;;;0.45;0.43;;;31.20;42.90;;;;;;5091057;28;20194;-46
2023/02/04 10:57:23;;;;;;;0.40;0.40;;;31.10;42.80;;;;;;5091108;28;20197;-46
2023/02/04 10:59:59;;;;;;;1.00;0.55;;;31.10;42.90;;;;;;5090915;28;20217;-49
2023/02/04 11:02:42;;;;;;;0.65;0.50;;;31.10;42.90;;;;;;5091295;28;20205;-49
2023/02/04 11:05:16;;;;;;;0.47;0.40;;;31.00;42.90;;;;;;5091051;28;20229;-46
2023/02/04 11:07:48;;;;;;;0.47;0.47;;;31.00;42.90;;;;;;5082185;28;20237;-46
2023/02/04 11:10:23;;;;;;;0.40;0.40;;;31.00;43.00;;;;;;5071063;28;20650;-47
2023/02/04 11:13:04;;;;;;;1.00;0.52;;;30.90;43.00;;;;;;5071371;28;20536;-51
2023/02/04 11:15:45;;;;;;;0.88;0.50;;;31.00;43.10;;;;;;5070769;28;20203;-47
2023/02/04 11:18:29;;;;;;;1.58;0.60;;;30.90;43.00;;;;;;5073907;28;20219;-47
2023/02/04 11:21:01;;;;;;;0.73;0.52;;;30.90;43.10;;;;;;5075318;28;20233;-47
2023/02/04 11:23:37;;;;;;;0.50;0.50;;;30.90;43.10;;;;;;5075242;28;20195;-52
2023/02/04 11:26:16;;;;;;;1.02;0.80;;;30.90;43.20;;;;;;5075139;28;20194;-46
2023/02/04 11:28:58;;;;;;;0.65;0.50;;;30.90;43.20;;;;;;5075065;28;20230;-48
2023/02/04 11:31:57;;;;;;;0.50;0.40;;;30.80;43.20;;;;;;5075256;28;20198;-48
2023/02/04 11:34:32;;;;;;;0.60;0.40;;;30.80;43.30;;;;;;5075344;28;20202;-46
2023/02/04 11:37:19;;;;;;;1.13;0.50;;;30.80;43.30;;;;;;5074605;28;20221;-50
2023/02/04 11:39:51;;;;;;;0.60;0.60;;;30.70;43.30;;;;;;5074493;28;20221;-49
2023/02/04 11:42:24;;;;;;;1.95;0.63;;;30.70;43.30;;;;;;5074368;28;20194;-47
2023/02/04 11:44:56;;;;;;;0.50;0.40;;;30.70;43.40;;;;;;5074516;28;20221;-48
2023/02/04 11:47:35;;;;;;;0.50;0.50;;;30.70;43.40;;;;;;5074664;28;20217;-51
2023/02/04 11:50:13;;;;;;;0.50;0.50;;;30.60;43.50;;;;;;5074579;28;20250;-46
2023/02/04 11:52:43;;;;;;;0.40;0.38;;;30.60;43.50;;;;;;5074626;28;20194;-48
2023/02/04 11:55:15;;;;;;;0.40;0.40;;;30.60;43.60;;;;;;5074550;28;20194;-48
2023/02/04 11:57:46;;;;;;;1.35;0.60;;;30.60;43.60;;;;;;5083725;28;20195;-46
2023/02/04 12:00:18;;;;;;;0.43;0.40;;;30.60;43.70;;;;;;5094341;28;20194;-48
2023/02/04 12:02:52;;;;;;;0.65;0.50;;;30.60;43.70;;;;;;5094340;28;20209;-49
2023/02/04 12:05:23;;;;;;;0.50;0.50;;;30.50;43.70;;;;;;5094488;28;20197;-50
2023/02/04 12:07:54;;;;;;;0.40;0.40;;;30.50;43.70;;;;;;5091572;28;20218;-50
2023/02/04 12:10:34;;;;;;;0.63;0.60;;;30.50;43.80;;;;;;5094730;28;20560;-49
2023/02/04 12:13:17;;;;;;;0.50;0.50;;;30.50;43.80;;;;;;5094829;28;20220;-47
2023/02/04 12:15:59;;;;;;;0.43;0.43;;;30.50;43.80;;;;;;5094627;28;20224;-50
2023/02/04 12:18:33;;;;;;;0.50;0.40;;;30.50;43.80;;;;;;5094607;28;20217;-50
2023/02/04 12:21:05;;;;;;;0.40;0.40;;;30.40;43.80;;;;;;5094236;28;20197;-49
2023/02/04 12:23:35;;;;;;;1.40;0.50;;;30.40;43.80;;;;;;5093852;28;20198;-51
2023/02/04 12:26:08;;;;;;;0.40;0.40;;;30.40;43.80;;;;;;5094313;28;20194;-49
2023/02/04 12:28:38;;;;;;;0.75;0.60;;;30.40;43.80;;;;;;5094295;28;20230;-46
2023/02/04 12:31:09;;;;;;;1.27;0.50;;;30.30;43.80;;;;;;5093112;28;20194;-46
2023/02/04 12:33:42;;;;;;;0.50;0.50;;;30.30;43.90;;;;;;5094107;28;20198;-47
2023/02/04 12:36:12;;;;;;;0.90;0.73;;;30.30;43.90;;;;;;5094370;28;20202;-46
2023/02/04 12:38:43;;;;;;;0.40;0.40;;;30.20;43.90;;;;;;5077293;28;20215;-46
2023/02/04 12:41:14;;;;;;;0.68;0.45;;;30.30;44.00;;;;;;5073918;28;20592;-48
2023/02/04 12:43:44;;;;;;;1.83;0.82;;;30.20;44.00;;;;;;5075816;28;20201;-46
2023/02/04 12:46:15;;;;;;;0.45;0.45;;;30.20;44.10;;;;;;5073233;28;20191;-48
2023/02/04 12:48:47;;;;;;;0.50;0.40;;;30.20;44.10;;;;;;5073100;28;20721;-47
2023/02/04 12:51:19;;;;;;;1.33;0.52;;;30.20;44.10;;;;;;5073359;28;20199;-47
2023/02/04 12:53:51;;;;;;;0.65;0.57;;;30.20;44.20;;;;;;5073204;28;20199;-49
2023/02/04 12:56:23;;;;;;;0.40;0.40;;;30.20;44.20;;;;;;5073252;28;20195;-46
2023/02/04 12:58:53;;;;;;;0.47;0.45;;;30.20;44.20;;;;;;5073373;28;20219;-46
2023/02/04 13:01:24;;;;;;;0.57;0.40;;;30.10;44.10;;;;;;5072733;28;20689;-47
2023/02/04 13:03:56;;;;;;;1.30;0.60;;;30.10;44.20;;;;;;5072669;28;20202;-48
2023/02/04 13:06:27;;;;;;;0.57;0.50;;;30.10;44.20;;;;;;5073110;28;20203;-47
2023/02/04 13:08:58;;;;;;;0.55;0.40;;;30.10;44.20;;;;;;5072863;28;20238;-48
2023/02/04 13:11:28;;;;;;;0.90;0.68;;;30.00;44.20;;;;;;5072680;28;20199;-49